AirNav   Air Wisconsin pilot careers
 
 666 users online  

3NJ1 Pemberton Airport
Pemberton, New Jersey, USA

GOING TO PEMBERTON?


FAA INFORMATION EFFECTIVE 03 JANUARY 2019

Location

FAA Identifier: 3NJ1
Lat/Long: 39-58-55.8400N / 074-41-41.9100W
39-58.930667N / 074-41.698500W
39.9821778 / -74.6949750
(estimated)
Elevation: 65 ft. / 20 m (estimated)
Variation: 12W (1985)
From city: 1 mile NW of PEMBERTON, NJ
Time zone: UTC -5 (UTC -4 during Daylight Saving Time)
Zip code: 08068

Airport Operations

Airport use: Private use. Permission required prior to landing
Activation date: 05/1951
Control tower: no
ARTCC: NEW YORK CENTER
FSS: MILLVILLE FLIGHT SERVICE STATION
Attendance: DAYLIGHT HOURS
Wind indicator: yes
Segmented circle: no

Airport Communications

WX ASOS at VAY (7 nm W): 119.325 (609-267-1176)
WX ASOS at PNE (16 nm W): PHONE 215-677-0146
WX ASOS at TTN (18 nm N): 126.775 (609-538-8690)
WX AWOS-3PT at MJX (19 nm E): 119.875 (732-797-2542)
WX AWOS-AV at N81 (19 nm S): 122.7

Nearby radio navigation aids

VOR radial/distance  VOR name  Freq  Var
GXUr262/4.8MC GUIRE VORTAC110.6012W
CYNr319/15.6COYLE VORTAC113.4010W
RBVr225/16.1ROBBINSVILLE VORTAC113.8010W
ARDr159/19.0YARDLEY VOR/DME108.2010W
VCNr035/29.5CEDAR LAKE VOR/DME115.2010W
COLr242/31.5COLTS NECK VOR/DME115.4011W
ACYr000/32.0ATLANTIC CITY VORTAC108.6010W
OODr063/34.9WOODSTOWN VORTAC112.8010W
SBJr187/36.1SOLBERG VOR/DME112.9010W

 
NDB name  Hdg/Dist  Freq  Var  ID
LAKEHURST268/16.939611WNEL -. . .-..
AMBLER120/28.427512WING .. -. --.
RAINBOW042/39.536311WRNB .-. -. -...

Airport Services

Parking: tiedowns
Airframe service: MAJOR
Powerplant service: MAJOR

Runway Information

Runway 4/22

Dimensions: 2568 x 100 ft. / 783 x 30 m
Surface: turf, in fair condition
Runway edge markings: YELLOW BUCKETS MARK RY ENDS AND EDGES.
RUNWAY 4  RUNWAY 22
Traffic pattern: leftleft
Obstructions: 60 ft. tree, 5 ft. from runway, 90 ft. right of centerline68 ft. tree, 140 ft. from runway, 102 ft. right of centerline, 2:1 slope to clear

Airport Ownership and Management from official FAA records

Ownership: Privately-owned
Owner: METRO AIRWAYS INC
227 PENN-LAWR
PENNINGTON, NJ 08524
Phone 609-575-7284
Manager: FRANK VITELLARO
227 PENN-LAWR
PENNINGTON, NJ 08868
Phone 609-575-7284

Airport Operational Statistics

Aircraft based on the field: 24
Single engine airplanes: 12
Ultralights: 12
    
Aircraft operations: avg 33/day *
92% local general aviation
8% transient general aviation
* for 12-month period ending 02 June 1998

Additional Remarks

TREES EACH END RWY 04/22.
ULTRALGT ACTIVITY ON AND INVOF ARPT.

Instrument Procedures

There are no published instrument procedures at 3NJ1.

Some nearby airports with instrument procedures:

KWRI - McGuire Field (Joint Base Mc Guire Dix Lakehurst) Airport (5 nm NE)
N73 - Red Lion Airport (5 nm SW)
N14 - Flying W Airport (6 nm SW)
KVAY - South Jersey Regional Airport (7 nm W)
N87 - Trenton-Robbinsville Airport (15 nm N)
KPNE - Northeast Philadelphia Airport (16 nm NW)
KNEL - Lakehurst Maxfield Field Airport (16 nm E)
19N - Camden County Airport (17 nm SW)
KTTN - Trenton Mercer Airport (18 nm N)
KMJX - Ocean County Airport (19 nm E)
 
Loc | Ops | Rwys | IFR | FBO | Links
Com | Nav | Svcs | Stats | Notes
Area around 3NJ1 (Pemberton Airport)
 
Road maps at: MapQuest Bing Google
 
Aerial photo
WARNING: Photo may not be current or correct
Aerial photo of 3NJ1 (Pemberton Airport)
Photo by Scott Krzysik
Photo taken 26-May-2010

Do you have a better or more recent aerial photo of Pemberton Airport that you would like to share? If so, please send us your photo.

 
Sectional chart

 
Airport distance calculator
Flying to Pemberton Airport? Find the distance to fly.

From to 3NJ1

Sunrise and sunset
Times for 17-Jan-2019
 Local
(UTC-5)
 Zulu
(UTC)
Morning civil twilight06:4911:49
Sunrise07:1912:19
Sunset16:5921:59
Evening civil twilight17:2922:29

Current date and time
Zulu (UTC)  18-Jan-2019 04:44:40
Local (UTC-5)  17-Jan-2019 23:44:40
 
METAR
KWRI 
6nm E 
180426Z 00000KT 10SM -SN BKN028 BKN060 M01/M05 A3019 RMK AO2A CIG 028V060 CIG 024 RWY18 SLP224 $
KVAY 
7nm SW 
ASOS 119.325 609-267-1176
180354Z AUTO 00000KT 10SM OVC055 M01/M06 A3024 RMK AO2 SLP239 T10111056
KPNE 
16nm W 
180441Z AUTO 00000KT 2 1/2SM -SN SCT029 BKN034 OVC043 M01/M04 A3024 RMK AO2 SNB25 P0000 T10061044
KNEL 
17nm E 
180400Z AUTO 06003KT FEW025 BKN034 OVC060 A3021 RMK AO2 SLPNO PNO $
KMJX 
19nm E 
AWOS-3 119.875 732-244-4450
180417Z AUTO 00000KT 10SM UP SCT028 BKN036 OVC055 M01/M03 A3023 RMK AO2 UPB09SNE09 P0000 FZRANO
KTTN 
19nm N 
ASOS 133.70 609-538-8690
180353Z AUTO 00000KT 10SM BKN039 OVC046 M01/M06 A3023 RMK AO2 SLP232 T10111061
TAF
KWRI 
6nm E 
180200Z 1802/1908 11006KT 9999 BKN040 620405 QNH3018INS BECMG 1803/1804 08009KT 6000 -SN OVC010 620109 QNH3008INS BECMG 1807/1808 06009KT 3200 -SN BR OVC005 620059 QNH3004INS TEMPO 1810/1811 -RASN BECMG 1811/1812 03009KT 6000 -RA OVC005 620309 QNH3002INS BECMG 1815/1816 28012KT 9999 NSW OVC010 620409 QNH3001INS BECMG 1823/1824 28006KT 9999 BKN020 QNH3009INS TX03/1821Z TNM03/1805Z
KPNE 
16nm W 
180203Z 1802/1824 09005KT P6SM OVC050 FM180500 09005KT 4SM -SN OVC040 FM180700 07005KT 2SM -SN OVC015 FM181000 VRB04KT 5SM -SN BR OVC008 FM181300 VRB04KT 5SM BR OVC008 FM181700 27005KT P6SM OVC015 FM182000 28005KT P6SM OVC050
KTTN 
19nm N 
180203Z 1802/1824 10005KT P6SM OVC050 FM180500 11005KT 4SM -SN OVC040 FM180700 08005KT 2SM -SN OVC015 FM181000 VRB04KT 3SM -SN BR OVC008 FM181300 30005KT 4SM BR OVC008 FM181700 27005KT P6SM OVC015 FM182000 28005KT P6SM OVC050
NOTAMs
Click for the latest NOTAMs
NOTAMs are issued by the DoD/FAA and will open in a separate window not controlled by AirNav.

 

 
 

Would you like to see your business listed on this page?

 If your business provides an interesting product or service to pilots, flight crews, aircraft, or users of the Pemberton Airport, you should consider listing it here.  To start the listing process, click on the button below
 
Add a business
 

Other Pages about Pemberton Airport

Update a link
 
Copyright © AirNav, LLC. All rights reserved. Privacy Policy  Contact